Welcome to Northern Hawkes Bay. New Zealand.
PWS Header
      nz Flag



Hit Counter


W3C Valid W3C Valid logo


    Wairoa

Select any of the Stations below to visit their websites.










Historic Data from Weather Underground
Select the location of interest below. Wairoa is the default. Please have patience, this Data is slow to load in.
Northern Hawkes Bay Historical Data
Daily Summary for March 3, 2017 Units:  Metric    English   Both
« Previous Day
Next Day »
Daily Weekly Monthly Yearly Custom
  High: Low: Average:
Temperature: 29.3 °C 15.6 °C 21.9 °C
Dew Point: 16.9 °C 7.7 °C 13.3 °C
Humidity: 96% 28% 63%
Wind Speed: 23.3km/h 0.0km/h 7km/h
Wind Gust: 35.6km/h - -
Wind- - WNW
Pressure: 1023.9 hPa 1013.8 hPa -
Precipitation: 0.0 mm    
Historical Graphs
 
 
Tabular Data for March 3, 2017
Time Temperature Dew Point Pressure Wind Wind Speed Wind Gust Humidity Rainfall Rate (Hourly) solar
00:01 18.0 °C 16.2 °C 1023.9 hPa NNW 3.5 km/h 7.2 km/h 89% 0.0 mm 0 W/m2
00:06 18.0 °C 16.2 °C 1023.6 hPa North 3.5 km/h 7.2 km/h 89% 0.0 mm 0 W/m2
00:11 17.9 °C 15.9 °C 1023.9 hPa NNW 5.0 km/h 7.2 km/h 88% 0.0 mm 0 W/m2
00:16 17.9 °C 15.9 °C 1023.9 hPa NNW 1.1 km/h 7.2 km/h 88% 0.0 mm 0 W/m2
00:21 17.9 °C 16.1 °C 1023.6 hPa NNW 2.6 km/h 6.1 km/h 89% 0.0 mm 0 W/m2
00:26 17.9 °C 16.1 °C 1023.6 hPa Calm   6.1 km/h 89% 0.0 mm 0 W/m2
00:31 17.9 °C 16.1 °C 1023.6 hPa North 3.5 km/h 6.1 km/h 89% 0.0 mm 0 W/m2
00:36 17.8 °C 16.0 °C 1023.6 hPa North 2.6 km/h 6.1 km/h 89% 0.0 mm 0 W/m2
00:41 17.8 °C 16.0 °C 1023.6 hPa North 1.1 km/h 7.2 km/h 89% 0.0 mm 0 W/m2
00:46 17.8 °C 16.0 °C 1023.6 hPa NNW 2.6 km/h 7.2 km/h 89% 0.0 mm 0 W/m2
00:51 17.8 °C 16.2 °C 1023.6 hPa NNW 1.1 km/h 6.1 km/h 90% 0.0 mm 0 W/m2
00:56 17.7 °C 16.1 °C 1023.2 hPa NNW 2.6 km/h 6.1 km/h 90% 0.0 mm 0 W/m2
01:01 17.7 °C 16.1 °C 1023.6 hPa Calm   6.1 km/h 90% 0.0 mm 0 W/m2
01:06 17.7 °C 16.1 °C 1023.6 hPa NNW 1.1 km/h 3.5 km/h 90% 0.0 mm 0 W/m2
01:11 17.7 °C 16.1 °C 1023.2 hPa North 3.5 km/h 6.1 km/h 90% 0.0 mm 0 W/m2
01:16 17.7 °C 16.1 °C 1023.2 hPa North 3.5 km/h 6.1 km/h 90% 0.0 mm 0 W/m2
01:21 17.7 °C 16.1 °C 1023.6 hPa North 1.1 km/h 6.1 km/h 90% 0.0 mm 0 W/m2
01:26 17.7 °C 16.1 °C 1023.6 hPa NNW 2.6 km/h 6.1 km/h 90% 0.0 mm 0 W/m2
01:31 17.7 °C 16.1 °C 1023.6 hPa NNW 2.6 km/h 6.1 km/h 90% 0.0 mm 0 W/m2
01:36 17.7 °C 16.1 °C 1023.2 hPa North 3.5 km/h 7.2 km/h 90% 0.0 mm 0 W/m2
01:41 17.7 °C 16.1 °C 1023.6 hPa NNW 2.6 km/h 7.2 km/h 90% 0.0 mm 0 W/m2
01:46 17.7 °C 16.1 °C 1023.2 hPa NNW 1.1 km/h 7.2 km/h 90% 0.0 mm 0 W/m2
01:51 17.7 °C 15.9 °C 1023.6 hPa NNW 3.5 km/h 7.2 km/h 89% 0.0 mm 0 W/m2
01:56 17.6 °C 15.8 °C 1023.2 hPa NNW 5.0 km/h 8.7 km/h 89% 0.0 mm 0 W/m2
02:01 17.6 °C 15.8 °C 1023.2 hPa NNW 3.5 km/h 8.7 km/h 89% 0.0 mm 0 W/m2
02:06 17.5 °C 15.7 °C 1023.2 hPa NNW 2.6 km/h 8.7 km/h 89% 0.0 mm 0 W/m2
02:11 17.5 °C 15.7 °C 1023.2 hPa NNW 2.6 km/h 7.2 km/h 89% 0.0 mm 0 W/m2
02:16 17.5 °C 15.7 °C 1023.2 hPa NNW 3.5 km/h 7.2 km/h 89% 0.0 mm 0 W/m2
02:21 17.5 °C 15.7 °C 1023.2 hPa NNW 2.6 km/h 7.2 km/h 89% 0.0 mm 0 W/m2
02:26 17.5 °C 15.7 °C 1023.2 hPa NNW 1.1 km/h 7.2 km/h 89% 0.0 mm 0 W/m2
02:31 17.5 °C 15.7 °C 1023.2 hPa North 3.5 km/h 6.1 km/h 89% 0.0 mm 0 W/m2
02:36 17.3 °C 15.5 °C 1023.2 hPa North 1.1 km/h 6.1 km/h 89% 0.0 mm 0 W/m2
02:41 17.3 °C 15.5 °C 1022.9 hPa Calm   6.1 km/h 89% 0.0 mm 0 W/m2
02:46 17.3 °C 15.5 °C 1023.2 hPa North 2.6 km/h 5.0 km/h 89% 0.0 mm 0 W/m2
02:51 17.3 °C 15.5 °C 1022.9 hPa North 1.1 km/h 5.0 km/h 89% 0.0 mm 0 W/m2
02:56 17.3 °C 15.5 °C 1022.9 hPa North 2.6 km/h 5.0 km/h 89% 0.0 mm 0 W/m2
03:01 17.3 °C 15.5 °C 1022.9 hPa North 3.5 km/h 6.1 km/h 89% 0.0 mm 0 W/m2
03:06 17.3 °C 15.3 °C 1022.9 hPa North 2.6 km/h 6.1 km/h 88% 0.0 mm 0 W/m2
03:11 17.3 °C 15.3 °C 1022.9 hPa North 3.5 km/h 6.1 km/h 88% 0.0 mm 0 W/m2
03:16 17.3 °C 15.3 °C 1022.6 hPa North 2.6 km/h 6.1 km/h 88% 0.0 mm 0 W/m2
03:21 17.3 °C 15.3 °C 1022.6 hPa North 2.6 km/h 7.2 km/h 88% 0.0 mm 0 W/m2
03:26 17.3 °C 15.3 °C 1022.6 hPa North 2.6 km/h 7.2 km/h 88% 0.0 mm 0 W/m2
03:31 17.3 °C 15.3 °C 1022.6 hPa North 2.6 km/h 6.1 km/h 88% 0.0 mm 0 W/m2
03:36 17.3 °C 15.3 °C 1022.6 hPa Calm   6.1 km/h 88% 0.0 mm 0 W/m2
03:41 17.3 °C 15.3 °C 1022.6 hPa NNW 3.5 km/h 6.1 km/h 88% 0.0 mm 0 W/m2
03:46 17.3 °C 15.3 °C 1022.6 hPa Calm   5.0 km/h 88% 0.0 mm 0 W/m2
03:51 17.3 °C 15.5 °C 1022.6 hPa North 2.6 km/h 6.1 km/h 89% 0.0 mm 0 W/m2
03:56 17.3 °C 15.5 °C 1022.2 hPa NNW 2.6 km/h 6.1 km/h 89% 0.0 mm 0 W/m2
04:01 17.3 °C 15.5 °C 1022.2 hPa Calm   5.0 km/h 89% 0.0 mm 0 W/m2
04:06 17.3 °C 15.5 °C 1022.2 hPa North 1.1 km/h 3.5 km/h 89% 0.0 mm 0 W/m2
04:11 17.2 °C 15.4 °C 1022.2 hPa Calm   3.5 km/h 89% 0.0 mm 0 W/m2
04:16 17.2 °C 15.4 °C 1022.2 hPa Calm   5.0 km/h 89% 0.0 mm 0 W/m2
04:21 17.2 °C 15.4 °C 1022.2 hPa NW 1.1 km/h 5.0 km/h 89% 0.0 mm 0 W/m2
04:26 17.1 °C 15.3 °C 1022.2 hPa Calm   5.0 km/h 89% 0.0 mm 0 W/m2
04:31 17.0 °C 15.3 °C 1022.2 hPa Calm   2.6 km/h 90% 0.0 mm 0 W/m2
04:36 16.9 °C 15.4 °C 1021.9 hPa Calm   3.5 km/h 91% 0.0 mm 0 W/m2
04:41 16.8 °C 15.3 °C 1021.9 hPa NW 1.1 km/h 3.5 km/h 91% 0.0 mm 0 W/m2
04:46 16.7 °C 15.4 °C 1021.9 hPa NNW 2.6 km/h 5.0 km/h 92% 0.0 mm 0 W/m2
04:51 16.7 °C 15.4 °C 1022.2 hPa NNW 1.1 km/h 5.0 km/h 92% 0.0 mm 0 W/m2
04:56 16.6 °C 15.3 °C 1021.9 hPa NNW 1.1 km/h 3.5 km/h 92% 0.0 mm 0 W/m2
05:01 16.7 °C 15.6 °C 1021.9 hPa Calm   3.5 km/h 93% 0.0 mm 0 W/m2
05:06 16.7 °C 15.6 °C 1021.9 hPa Calm   3.5 km/h 93% 0.0 mm 0 W/m2
05:11 16.7 °C 15.6 °C 1021.9 hPa Calm   3.5 km/h 93% 0.0 mm 0 W/m2
05:16 16.7 °C 15.6 °C 1021.9 hPa Calm     93% 0.0 mm 0 W/m2
05:21 16.7 °C 15.6 °C 1021.6 hPa Calm     93% 0.0 mm 0 W/m2
05:26 16.7 °C 15.6 °C 1021.6 hPa North 2.6 km/h 3.5 km/h 93% 0.0 mm 0 W/m2
05:42 16.7 °C 15.6 °C 1021.6 hPa Calm   3.5 km/h 93% 0.0 mm 0 W/m2
05:47 16.6 °C 15.5 °C 1021.6 hPa Calm     93% 0.0 mm 0 W/m2
05:52 16.6 °C 15.5 °C 1021.6 hPa Calm     93% 0.0 mm 0 W/m2
05:57 16.6 °C 15.5 °C 1021.6 hPa Calm   2.6 km/h 93% 0.0 mm 0 W/m2
06:02 16.6 °C 15.5 °C 1021.6 hPa Calm   2.6 km/h 93% 0.0 mm 0 W/m2
06:07 16.6 °C 15.5 °C 1021.6 hPa Calm     93% 0.0 mm 0 W/m2
06:12 16.6 °C 15.5 °C 1021.6 hPa Calm     93% 0.0 mm 0 W/m2
06:17 16.6 °C 15.5 °C 1021.2 hPa NNW 5.0 km/h 7.2 km/h 93% 0.0 mm 0 W/m2
06:22 16.6 °C 15.5 °C 1021.2 hPa NNW 3.5 km/h 7.2 km/h 93% 0.0 mm 0 W/m2
06:27 16.6 °C 15.5 °C 1021.2 hPa NW 3.5 km/h 7.2 km/h 93% 0.0 mm 0 W/m2
06:32 16.5 °C 15.4 °C 1021.2 hPa NW 5.0 km/h 6.1 km/h 93% 0.0 mm 0 W/m2
06:37 16.5 °C 15.4 °C 1021.2 hPa NNW 1.1 km/h 6.1 km/h 93% 0.0 mm 0 W/m2
06:42 16.3 °C 15.2 °C 1021.2 hPa NW 1.1 km/h 6.1 km/h 93% 0.0 mm 0 W/m2
06:47 16.2 °C 15.1 °C 1021.2 hPa Calm   5.0 km/h 93% 0.0 mm 0 W/m2
06:52 16.1 °C 15.0 °C 1020.9 hPa Calm   1.1 km/h 93% 0.0 mm 1 W/m2
06:57 16.0 °C 14.9 °C 1021.2 hPa Calm     93% 0.0 mm 4 W/m2
07:02 15.8 °C 14.8 °C 1021.2 hPa Calm     94% 0.0 mm 6 W/m2
07:07 15.8 °C 14.8 °C 1021.2 hPa Calm     94% 0.0 mm 9 W/m2
07:12 15.6 °C 14.8 °C 1021.2 hPa NW 2.6 km/h 6.1 km/h 95% 0.0 mm 12 W/m2
07:17 15.6 °C 14.8 °C 1021.2 hPa NNW 1.1 km/h 6.1 km/h 95% 0.0 mm 17 W/m2
07:34 16.1 °C 15.4 °C 1020.9 hPa Calm   2.6 km/h 96% 0.0 mm 75 W/m2
07:39 16.8 °C 16.2 °C 1020.9 hPa Calm   2.6 km/h 96% 0.0 mm 99 W/m2
07:44 17.1 °C 16.3 °C 1020.9 hPa Calm   3.5 km/h 95% 0.0 mm 116 W/m2
07:49 17.5 °C 16.7 °C 1021.2 hPa North 1.1 km/h 3.5 km/h 95% 0.0 mm 127 W/m2
07:54 17.9 °C 16.8 °C 1020.9 hPa Calm   3.5 km/h 93% 0.0 mm 137 W/m2
07:59 18.6 °C 16.9 °C 1020.9 hPa North 1.1 km/h 3.5 km/h 90% 0.0 mm 147 W/m2
08:04 18.7 °C 16.2 °C 1020.9 hPa North 1.1 km/h 8.7 km/h 85% 0.0 mm 155 W/m2
08:09 18.6 °C 15.7 °C 1020.9 hPa North 1.1 km/h 8.7 km/h 83% 0.0 mm 162 W/m2
08:14 18.9 °C 15.9 °C 1020.9 hPa NNW 1.1 km/h 6.1 km/h 83% 0.0 mm 171 W/m2
08:19 19.2 °C 15.7 °C 1020.9 hPa Calm   5.0 km/h 80% 0.0 mm 178 W/m2
08:24 19.5 °C 15.6 °C 1020.9 hPa Calm   5.0 km/h 78% 0.0 mm 190 W/m2
08:29 19.9 °C 16.2 °C 1020.9 hPa Calm   5.0 km/h 79% 0.0 mm 198 W/m2
08:34 19.8 °C 15.7 °C 1020.9 hPa NNW 3.5 km/h 6.1 km/h 77% 0.0 mm 205 W/m2
08:39 19.6 °C 15.4 °C 1020.9 hPa NNW 2.6 km/h 7.2 km/h 77% 0.0 mm 214 W/m2
08:44 20.0 °C 15.8 °C 1020.9 hPa NNW 2.6 km/h 7.2 km/h 77% 0.0 mm 227 W/m2
08:49 20.2 °C 15.7 °C 1020.9 hPa NNW 1.1 km/h 7.2 km/h 75% 0.0 mm 240 W/m2
08:54 20.7 °C 16.1 °C 1020.9 hPa NNW 1.1 km/h 7.2 km/h 75% 0.0 mm 252 W/m2
08:59 21.2 °C 15.7 °C 1020.5 hPa North 3.5 km/h 8.7 km/h 71% 0.0 mm 267 W/m2
09:04 21.0 °C 16.0 °C 1020.9 hPa Calm   8.7 km/h 73% 0.0 mm 280 W/m2
09:09 21.6 °C 16.3 °C 1020.5 hPa NW 2.6 km/h 8.7 km/h 72% 0.0 mm 293 W/m2
09:14 21.2 °C 15.5 °C 1020.5 hPa NW 6.1 km/h 8.7 km/h 70% 0.0 mm 304 W/m2
09:19 20.9 °C 15.7 °C 1020.5 hPa NNW 5.0 km/h 8.7 km/h 72% 0.0 mm 315 W/m2
09:24 21.3 °C 16.1 °C 1020.5 hPa North 2.6 km/h 8.7 km/h 72% 0.0 mm 328 W/m2
09:29 21.9 °C 16.2 °C 1020.5 hPa Calm   8.7 km/h 70% 0.0 mm 340 W/m2
09:34 22.4 °C 15.8 °C 1020.5 hPa North 5.0 km/h 7.2 km/h 66% 0.0 mm 354 W/m2
09:40 22.4 °C 15.8 °C 1020.5 hPa NNW 5.0 km/h 8.7 km/h 66% 0.0 mm 363 W/m2
09:45 22.0 °C 15.4 °C 1020.2 hPa NNW 5.0 km/h 9.7 km/h 66% 0.0 mm 378 W/m2
09:50 21.9 °C 15.7 °C 1020.2 hPa NNW 5.0 km/h 9.7 km/h 68% 0.0 mm 391 W/m2
09:55 22.5 °C 15.6 °C 1020.2 hPa North 6.1 km/h 12.2 km/h 65% 0.0 mm 404 W/m2
10:00 22.6 °C 15.4 °C 1020.2 hPa North 5.0 km/h 12.2 km/h 64% 0.0 mm 418 W/m2
10:05 22.9 °C 16.0 °C 1020.2 hPa NNW 2.6 km/h 11.1 km/h 65% 0.0 mm 433 W/m2
10:10 23.6 °C 15.9 °C 1020.2 hPa NNW 5.0 km/h 14.8 km/h 62% 0.0 mm 447 W/m2
10:15 23.5 °C 15.8 °C 1019.9 hPa North 8.7 km/h 14.8 km/h 62% 0.0 mm 459 W/m2
10:20 23.3 °C 15.4 °C 1019.9 hPa North 8.7 km/h 12.2 km/h 61% 0.0 mm 469 W/m2
10:25 23.4 °C 15.7 °C 1019.9 hPa North 8.7 km/h 13.4 km/h 62% 0.0 mm 480 W/m2
10:30 23.8 °C 15.6 °C 1019.9 hPa North 11.1 km/h 14.8 km/h 60% 0.0 mm 103 W/m2
10:35 23.7 °C 15.5 °C 1019.9 hPa North 5.0 km/h 14.8 km/h 60% 0.0 mm 221 W/m2
10:40 23.9 °C 15.4 °C 1019.9 hPa North 8.7 km/h 14.8 km/h 59% 0.0 mm 515 W/m2
10:45 24.1 °C 15.6 °C 1019.5 hPa North 7.2 km/h 14.8 km/h 59% 0.0 mm 532 W/m2
10:50 24.4 °C 15.6 °C 1019.5 hPa North 8.7 km/h 12.2 km/h 58% 0.0 mm 113 W/m2
10:55 24.1 °C 14.8 °C 1019.5 hPa North 8.7 km/h 14.8 km/h 56% 0.0 mm 559 W/m2
11:00 24.3 °C 15.3 °C 1019.5 hPa North 5.0 km/h 14.8 km/h 57% 0.0 mm 108 W/m2
11:05 24.1 °C 15.6 °C 1019.5 hPa North 8.7 km/h 17.2 km/h 59% 0.0 mm 141 W/m2
11:10 24.2 °C 15.7 °C 1019.5 hPa NNW 5.0 km/h 17.2 km/h 59% 0.0 mm 130 W/m2
11:15 24.5 °C 15.4 °C 1019.2 hPa NW 11.1 km/h 15.8 km/h 57% 0.0 mm 140 W/m2
11:34 25.0 °C 15.6 °C 1019.2 hPa NNW 3.5 km/h 11.1 km/h 56% 0.0 mm 796 W/m2
11:39 24.6 °C 15.3 °C 1018.8 hPa North 6.1 km/h 15.8 km/h 56% 0.0 mm 752 W/m2
11:44 24.5 °C 15.4 °C 1018.8 hPa North 8.7 km/h 15.8 km/h 57% 0.0 mm 195 W/m2
11:49 23.9 °C 15.2 °C 1018.8 hPa NNW 6.1 km/h 15.8 km/h 58% 0.0 mm 204 W/m2
11:54 24.1 °C 15.6 °C 1018.5 hPa NW 11.1 km/h 15.8 km/h 59% 0.0 mm 749 W/m2
11:59 24.5 °C 14.9 °C 1018.5 hPa NW 6.1 km/h 18.3 km/h 55% 0.0 mm 752 W/m2
12:04 25.1 °C 13.3 °C 1018.5 hPa North 5.0 km/h 18.3 km/h 48% 0.0 mm 759 W/m2
12:10 25.5 °C 13.1 °C 1018.2 hPa NNE 12.2 km/h 17.2 km/h 46% 0.0 mm 775 W/m2
12:15 25.3 °C 12.6 °C 1018.2 hPa NNW 9.7 km/h 21.9 km/h 45% 0.0 mm 793 W/m2
12:20 25.4 °C 12.9 °C 1018.2 hPa NNW 9.7 km/h 23.3 km/h 46% 0.0 mm 801 W/m2
12:25 25.7 °C 12.9 °C 1017.8 hPa NNW 6.1 km/h 23.3 km/h 45% 0.0 mm 822 W/m2
12:30 25.9 °C 12.7 °C 1018.2 hPa NNW 13.4 km/h 20.9 km/h 44% 0.0 mm 834 W/m2
12:35 25.8 °C 12.7 °C 1017.8 hPa NW 15.8 km/h 23.3 km/h 44% 0.0 mm 846 W/m2
12:40 25.6 °C 12.1 °C 1017.5 hPa NW 13.4 km/h 27.0 km/h 43% 0.0 mm 861 W/m2
12:45 25.8 °C 12.7 °C 1017.5 hPa NW 11.1 km/h 27.0 km/h 44% 0.0 mm 872 W/m2
12:50 25.9 °C 12.4 °C 1017.5 hPa NW 11.1 km/h 24.5 km/h 43% 0.0 mm 889 W/m2
12:55 26.0 °C 12.1 °C 1017.5 hPa NW 14.8 km/h 24.5 km/h 42% 0.0 mm 887 W/m2
13:00 26.3 °C 12.4 °C 1017.5 hPa NNW 14.8 km/h 27.0 km/h 42% 0.0 mm 892 W/m2
13:05 26.2 °C 12.3 °C 1017.2 hPa North 20.9 km/h 31.7 km/h 42% 0.0 mm 898 W/m2
13:10 26.0 °C 12.1 °C 1017.2 hPa NNW 6.1 km/h 31.7 km/h 42% 0.0 mm 903 W/m2
13:15 26.3 °C 11.7 °C 1016.8 hPa NNW 3.5 km/h 27.0 km/h 40% 0.0 mm 910 W/m2
13:20 26.5 °C 11.8 °C 1017.2 hPa NNW 1.1 km/h 18.3 km/h 40% 0.0 mm 918 W/m2
13:25 26.5 °C 11.1 °C 1016.8 hPa NNW 1.1 km/h 18.3 km/h 38% 0.0 mm 918 W/m2
13:30 26.9 °C 12.2 °C 1016.8 hPa NNW 8.7 km/h 19.5 km/h 40% 0.0 mm 925 W/m2
13:35 26.8 °C 12.1 °C 1016.8 hPa NNW 9.7 km/h 19.5 km/h 40% 0.0 mm 921 W/m2
13:40 26.9 °C 12.6 °C 1016.5 hPa NNW 12.2 km/h 19.5 km/h 41% 0.0 mm 913 W/m2
13:45 26.9 °C 11.4 °C 1016.5 hPa NNW 8.7 km/h 18.3 km/h 38% 0.0 mm 909 W/m2
13:50 27.0 °C 11.5 °C 1016.5 hPa NNW 7.2 km/h 20.9 km/h 38% 0.0 mm 904 W/m2
13:55 27.1 °C 12.0 °C 1016.5 hPa NNW 1.1 km/h 20.9 km/h 39% 0.0 mm 907 W/m2
13:59 27.4 °C 12.2 °C 1016.5 hPa North 6.1 km/h 17.2 km/h 39% 0.0 mm 906 W/m2
14:04 27.3 °C 11.8 °C 1016.1 hPa NNW 3.5 km/h 18.3 km/h 38% 0.0 mm 885 W/m2
14:09 27.4 °C 11.8 °C 1016.1 hPa NNW 2.6 km/h 20.9 km/h 38% 0.0 mm 880 W/m2
14:14 27.7 °C 10.9 °C 1016.1 hPa NNW 8.7 km/h 20.9 km/h 35% 0.0 mm 866 W/m2
14:19 27.6 °C 11.2 °C 1016.1 hPa NNW 5.0 km/h 20.9 km/h 36% 0.0 mm 866 W/m2
14:24 27.7 °C 10.9 °C 1015.8 hPa NNW 19.5 km/h 24.5 km/h 35% 0.0 mm 817 W/m2
14:29 27.5 °C 10.7 °C 1015.8 hPa North 14.8 km/h 24.5 km/h 35% 0.0 mm 577 W/m2
14:34 27.4 °C 11.1 °C 1015.8 hPa NNW 6.1 km/h 24.5 km/h 36% 0.0 mm 753 W/m2
14:39 27.8 °C 10.5 °C 1015.8 hPa NNW 5.0 km/h 23.3 km/h 34% 0.0 mm 814 W/m2
14:44 27.7 °C 10.4 °C 1015.5 hPa North 8.7 km/h 23.3 km/h 34% 0.0 mm 537 W/m2
14:49 28.0 °C 12.0 °C 1015.5 hPa NNW 3.5 km/h 23.3 km/h 37% 0.0 mm 790 W/m2
14:55 28.5 °C 12.0 °C 1015.5 hPa NW 6.1 km/h 21.9 km/h 36% 0.0 mm 777 W/m2
15:00 28.4 °C 11.9 °C 1015.5 hPa NW 3.5 km/h 21.9 km/h 36% 0.0 mm 757 W/m2
15:05 28.3 °C 11.8 °C 1015.5 hPa NW 8.7 km/h 19.5 km/h 36% 0.0 mm 749 W/m2
15:10 28.4 °C 11.9 °C 1015.1 hPa NW 7.2 km/h 19.5 km/h 36% 0.0 mm 650 W/m2
15:15 28.4 °C 11.5 °C 1015.1 hPa NW 8.7 km/h 20.9 km/h 35% 0.0 mm 718 W/m2
15:20 28.4 °C 11.5 °C 1015.1 hPa NW 9.7 km/h 28.0 km/h 35% 0.0 mm 599 W/m2
15:25 28.5 °C 11.6 °C 1014.8 hPa NNW 15.8 km/h 28.0 km/h 35% 0.0 mm 648 W/m2
15:30 28.8 °C 12.3 °C 1015.1 hPa NNW 9.7 km/h 24.5 km/h 36% 0.0 mm 640 W/m2
15:35 28.8 °C 11.8 °C 1014.8 hPa NW 14.8 km/h 23.3 km/h 35% 0.0 mm 604 W/m2
15:40 28.6 °C 12.1 °C 1014.8 hPa NW 13.4 km/h 21.9 km/h 36% 0.0 mm 604 W/m2
15:45 28.4 °C 11.5 °C 1014.4 hPa NNW 12.2 km/h 25.6 km/h 35% 0.0 mm 560 W/m2
15:50 28.8 °C 12.3 °C 1014.8 hPa NNW 9.7 km/h 25.6 km/h 36% 0.0 mm 605 W/m2
15:55 28.8 °C 11.8 °C 1014.4 hPa NNW 13.4 km/h 18.3 km/h 35% 0.0 mm 550 W/m2
16:00 28.9 °C 11.9 °C 1014.4 hPa NW 12.2 km/h 18.3 km/h 35% 0.0 mm 471 W/m2
16:05 29.1 °C 11.7 °C 1014.4 hPa NNW 14.8 km/h 18.3 km/h 34% 0.0 mm 523 W/m2
16:10 28.8 °C 11.8 °C 1014.4 hPa NNW 6.1 km/h 25.6 km/h 35% 0.0 mm 436 W/m2
16:15 29.0 °C 11.6 °C 1014.4 hPa NW 11.1 km/h 25.6 km/h 34% 0.0 mm 468 W/m2
16:20 29.2 °C 11.3 °C 1014.1 hPa NNW 7.2 km/h 20.9 km/h 33% 0.0 mm 139 W/m2
16:25 29.0 °C 12.0 °C 1014.1 hPa NNW 14.8 km/h 28.0 km/h 35% 0.0 mm 481 W/m2
16:30 29.1 °C 12.1 °C 1014.1 hPa NNW 13.4 km/h 28.0 km/h 35% 0.0 mm 471 W/m2
16:35 29.3 °C 9.9 °C 1014.1 hPa NNW 11.1 km/h 20.9 km/h 30% 0.0 mm 357 W/m2
16:40 29.0 °C 12.0 °C 1014.1 hPa NNW 23.3 km/h 27.0 km/h 35% 0.0 mm 326 W/m2
16:45 28.6 °C 11.7 °C 1014.1 hPa NNW 17.2 km/h 28.0 km/h 35% 0.0 mm 395 W/m2
16:50 28.5 °C 8.8 °C 1014.1 hPa NW 8.7 km/h 34.3 km/h 29% 0.0 mm 394 W/m2
16:55 29.0 °C 9.7 °C 1013.8 hPa NW 13.4 km/h 34.3 km/h 30% 0.0 mm 425 W/m2
17:00 28.9 °C 9.6 °C 1014.1 hPa NW 6.1 km/h 20.9 km/h 30% 0.0 mm 410 W/m2
17:05 28.8 °C 9.5 °C 1013.8 hPa NW 11.1 km/h 25.6 km/h 30% 0.0 mm 394 W/m2
17:10 28.8 °C 10.0 °C 1014.1 hPa NW 13.4 km/h 25.6 km/h 31% 0.0 mm 372 W/m2
17:15 28.6 °C 9.3 °C 1014.1 hPa NW 9.7 km/h 24.5 km/h 30% 0.0 mm 366 W/m2
17:20 28.8 °C 10.0 °C 1014.1 hPa NW 12.2 km/h 21.9 km/h 31% 0.0 mm 348 W/m2
17:25 28.6 °C 9.3 °C 1014.1 hPa NW 17.2 km/h 24.5 km/h 30% 0.0 mm 330 W/m2
17:30 28.2 °C 8.5 °C 1014.1 hPa NW 14.8 km/h 25.6 km/h 29% 0.0 mm 311 W/m2
17:35 28.1 °C 9.4 °C 1013.8 hPa NW 13.4 km/h 28.0 km/h 31% 0.0 mm 310 W/m2
17:40 27.9 °C 7.7 °C 1013.8 hPa NW 19.5 km/h 35.6 km/h 28% 0.0 mm 283 W/m2
17:41 27.8 °C 7.7 °C 1013.8 hPa NW 11.1 km/h 35.6 km/h 28% 0.0 mm 280 W/m2
17:46 27.6 °C 8.0 °C 1013.8 hPa NNW 15.8 km/h 35.6 km/h 29% 0.0 mm 269 W/m2
17:51 27.5 °C 7.9 °C 1013.8 hPa NW 12.2 km/h 30.6 km/h 29% 0.0 mm 244 W/m2
17:56 27.5 °C 8.4 °C 1013.8 hPa NW 14.8 km/h 29.4 km/h 30% 0.0 mm 238 W/m2
18:01 27.5 °C 8.4 °C 1013.8 hPa NW 9.7 km/h 23.3 km/h 30% 0.0 mm 225 W/m2
18:06 27.4 °C 8.8 °C 1013.8 hPa NW 7.2 km/h 23.3 km/h 31% 0.0 mm 207 W/m2
18:11 27.4 °C 8.8 °C 1013.8 hPa NW 13.4 km/h 27.0 km/h 31% 0.0 mm 185 W/m2
18:16 26.9 °C 8.8 °C 1013.8 hPa NW 12.2 km/h 27.0 km/h 32% 0.0 mm 110 W/m2
18:21 26.0 °C 8.9 °C 1013.8 hPa NW 11.1 km/h 25.6 km/h 34% 0.0 mm 51 W/m2
18:26 25.8 °C 10.0 °C 1013.8 hPa NW 11.1 km/h 28.0 km/h 37% 0.0 mm 69 W/m2
18:31 25.5 °C 10.2 °C 1013.8 hPa NW 17.2 km/h 28.0 km/h 38% 0.0 mm 46 W/m2
18:36 25.5 °C 10.2 °C 1013.8 hPa WNW 15.8 km/h 25.6 km/h 38% 0.0 mm 68 W/m2
18:41 25.3 °C 10.4 °C 1013.8 hPa WNW 12.2 km/h 25.6 km/h 39% 0.0 mm 48 W/m2
18:46 25.3 °C 10.7 °C 1013.8 hPa NW 15.8 km/h 21.9 km/h 40% 0.0 mm 42 W/m2
18:51 25.1 °C 11.3 °C 1013.8 hPa NW 11.1 km/h 20.9 km/h 42% 0.0 mm 63 W/m2
18:56 25.2 °C 11.4 °C 1013.8 hPa NW 13.4 km/h 24.5 km/h 42% 0.0 mm 54 W/m2
19:01 24.8 °C 11.4 °C 1014.1 hPa NW 20.9 km/h 30.6 km/h 43% 0.0 mm 42 W/m2
19:06 24.7 °C 11.7 °C 1014.1 hPa NW 11.1 km/h 30.6 km/h 44% 0.0 mm 49 W/m2
19:11 24.6 °C 11.6 °C 1013.8 hPa NNW 14.8 km/h 27.0 km/h 44% 0.0 mm 43 W/m2
19:16 24.1 °C 11.1 °C 1013.8 hPa NNW 13.4 km/h 21.9 km/h 44% 0.0 mm 27 W/m2
19:21 23.8 °C 11.5 °C 1013.8 hPa NW 13.4 km/h 21.9 km/h 46% 0.0 mm 23 W/m2
19:26 23.6 °C 11.3 °C 1013.8 hPa NW 19.5 km/h 34.3 km/h 46% 0.0 mm 18 W/m2
19:31 23.4 °C 11.1 °C 1013.8 hPa NNW 15.8 km/h 34.3 km/h 46% 0.0 mm 13 W/m2
19:36 23.3 °C 11.1 °C 1013.8 hPa NNW 21.9 km/h 34.3 km/h 46% 0.0 mm 11 W/m2
19:41 23.2 °C 10.9 °C 1014.1 hPa NW 15.8 km/h 31.7 km/h 46% 0.0 mm 6 W/m2
19:46 23.1 °C 11.2 °C 1013.8 hPa NW 20.9 km/h 31.7 km/h 47% 0.0 mm 4 W/m2
19:51 22.9 °C 10.7 °C 1013.8 hPa NNW 17.2 km/h 30.6 km/h 46% 0.0 mm 0 W/m2
19:56 22.8 °C 10.6 °C 1013.8 hPa NNW 11.1 km/h 30.6 km/h 46% 0.0 mm 0 W/m2
20:01 22.7 °C 10.8 °C 1013.8 hPa NW 17.2 km/h 30.6 km/h 47% 0.0 mm 0 W/m2
20:06 22.6 °C 10.7 °C 1013.8 hPa NNW 12.2 km/h 24.5 km/h 47% 0.0 mm 0 W/m2
20:11 22.4 °C 10.9 °C 1014.1 hPa NNW 15.8 km/h 24.5 km/h 48% 0.0 mm 0 W/m2
20:16 22.2 °C 11.0 °C 1013.8 hPa North 11.1 km/h 23.3 km/h 49% 0.0 mm 0 W/m2
20:21 22.0 °C 11.1 °C 1013.8 hPa North 13.4 km/h 24.5 km/h 50% 0.0 mm 0 W/m2
20:26 22.0 °C 11.4 °C 1014.1 hPa NNW 11.1 km/h 24.5 km/h 51% 0.0 mm 0 W/m2
20:31 22.0 °C 11.4 °C 1014.1 hPa NNW 18.3 km/h 27.0 km/h 51% 0.0 mm 0 W/m2
20:36 22.0 °C 11.4 °C 1014.1 hPa NW 8.7 km/h 28.0 km/h 51% 0.0 mm 0 W/m2
20:41 21.9 °C 11.6 °C 1014.1 hPa NW 13.4 km/h 30.6 km/h 52% 0.0 mm 0 W/m2
20:46 21.9 °C 11.6 °C 1014.1 hPa NW 9.7 km/h 30.6 km/h 52% 0.0 mm 0 W/m2
20:51 21.8 °C 11.5 °C 1014.4 hPa NNW 14.8 km/h 25.6 km/h 52% 0.0 mm 0 W/m2
20:56 21.7 °C 11.4 °C 1014.1 hPa NNW 13.4 km/h 25.6 km/h 52% 0.0 mm 0 W/m2
21:01 21.7 °C 11.4 °C 1014.1 hPa NNW 15.8 km/h 25.6 km/h 52% 0.0 mm 0 W/m2
21:06 21.7 °C 11.4 °C 1014.1 hPa NNW 19.5 km/h 31.7 km/h 52% 0.0 mm 0 W/m2
21:11 21.7 °C 11.4 °C 1014.1 hPa NNW 9.7 km/h 31.7 km/h 52% 0.0 mm 0 W/m2
21:16 21.5 °C 11.2 °C 1014.1 hPa NNW 12.2 km/h 28.0 km/h 52% 0.0 mm 0 W/m2
21:21 21.5 °C 11.2 °C 1014.4 hPa NNW 14.8 km/h 29.4 km/h 52% 0.0 mm 0 W/m2
21:26 21.4 °C 11.2 °C 1014.4 hPa NNW 17.2 km/h 29.4 km/h 52% 0.0 mm 0 W/m2
21:31 21.3 °C 11.3 °C 1014.4 hPa NNW 9.7 km/h 24.5 km/h 53% 0.0 mm 0 W/m2
21:36 21.1 °C 11.2 °C 1014.4 hPa NNW 17.2 km/h 24.5 km/h 53% 0.0 mm 0 W/m2
21:41 21.0 °C 11.1 °C 1014.4 hPa NNW 9.7 km/h 21.9 km/h 53% 0.0 mm 0 W/m2
21:46 20.9 °C 11.3 °C 1014.4 hPa NNW 8.7 km/h 21.9 km/h 54% 0.0 mm 0 W/m2
21:51 20.6 °C 11.3 °C 1014.4 hPa North 6.1 km/h 17.2 km/h 55% 0.0 mm 0 W/m2
21:56 20.3 °C 11.2 °C 1014.4 hPa North 8.7 km/h 12.2 km/h 56% 0.0 mm 0 W/m2
22:01 20.2 °C 11.4 °C 1014.4 hPa NNW 7.2 km/h 12.2 km/h 57% 0.0 mm 0 W/m2
22:06 20.0 °C 11.5 °C 1014.4 hPa NNW 5.0 km/h 12.2 km/h 58% 0.0 mm 0 W/m2
22:11 19.9 °C 11.7 °C 1014.1 hPa North 6.1 km/h 14.8 km/h 59% 0.0 mm 0 W/m2
22:16 19.7 °C 11.7 °C 1014.1 hPa North 5.0 km/h 14.8 km/h 60% 0.0 mm 0 W/m2
22:21 19.5 °C 11.6 °C 1014.4 hPa North 7.2 km/h 13.4 km/h 60% 0.0 mm 0 W/m2
22:26 19.5 °C 11.8 °C 1014.4 hPa North 9.7 km/h 14.8 km/h 61% 0.0 mm 0 W/m2
22:31 19.5 °C 11.8 °C 1014.1 hPa NNE 8.7 km/h 14.8 km/h 61% 0.0 mm 0 W/m2
22:36 19.5 °C 11.8 °C 1014.1 hPa NNW 13.4 km/h 17.2 km/h 61% 0.0 mm 0 W/m2
22:41 19.9 °C 11.4 °C 1014.1 hPa NW 13.4 km/h 21.9 km/h 58% 0.0 mm 0 W/m2
22:46 20.1 °C 10.8 °C 1014.4 hPa NW 6.1 km/h 21.9 km/h 55% 0.0 mm 0 W/m2
22:51 20.3 °C 10.7 °C 1014.1 hPa NNW 9.7 km/h 21.9 km/h 54% 0.0 mm 0 W/m2
22:56 20.2 °C 10.6 °C 1014.1 hPa NNW 13.4 km/h 21.9 km/h 54% 0.0 mm 0 W/m2
23:01 20.1 °C 10.8 °C 1014.4 hPa NW 9.7 km/h 23.3 km/h 55% 0.0 mm 0 W/m2
23:06 20.0 °C 10.7 °C 1014.4 hPa NW 6.1 km/h 23.3 km/h 55% 0.0 mm 0 W/m2
23:11 19.9 °C 11.2 °C 1014.4 hPa NNW 9.7 km/h 17.2 km/h 57% 0.0 mm 0 W/m2
23:16 19.7 °C 10.9 °C 1014.4 hPa NNW 9.7 km/h 17.2 km/h 57% 0.0 mm 0 W/m2
23:21 19.4 °C 10.9 °C 1014.1 hPa NW 11.1 km/h 18.3 km/h 58% 0.0 mm 0 W/m2
23:26 19.3 °C 10.8 °C 1014.1 hPa NW 5.0 km/h 18.3 km/h 58% 0.0 mm 0 W/m2
23:31 19.2 °C 10.7 °C 1014.4 hPa Calm   18.3 km/h 58% 0.0 mm 0 W/m2
23:36 18.9 °C 11.0 °C 1014.4 hPa WNW 3.5 km/h 8.7 km/h 60% 0.0 mm 0 W/m2
23:41 18.7 °C 11.3 °C 1014.4 hPa NW 1.1 km/h 9.7 km/h 62% 0.0 mm 0 W/m2
23:46 18.5 °C 11.1 °C 1014.4 hPa WNW 2.6 km/h 9.7 km/h 62% 0.0 mm 0 W/m2
23:51 18.3 °C 10.9 °C 1014.4 hPa WNW 5.0 km/h 8.7 km/h 62% 0.0 mm 0 W/m2
23:56 18.3 °C 10.9 °C 1014.8 hPa NW 9.7 km/h 17.2 km/h 62% 0.0 mm 0 W/m2
Northern Hawkes Bay. New Zealand Historic Data
Compliments of Weather Underground - 2.25 mb